TimeEST,TemperatureF,Dew PointF,Humidity,Sea Level PressureIn,VisibilityMPH,Wind Direction,Wind SpeedMPH,Gust SpeedMPH,PrecipitationIn,Events,Conditions,WindDirDegrees,DateUTC
12:54 AM,46.0,32.0,58,30.25,10.0,SSE,5.8,-,N/A,,Overcast,150,2013-02-11 05:54:00
1:54 AM,48.0,33.1,56,30.22,10.0,SSE,3.5,-,N/A,,Overcast,160,2013-02-11 06:54:00
2:54 AM,48.9,37.9,66,30.19,10.0,South,8.1,-,0.00,,Overcast,170,2013-02-11 07:54:00
3:54 AM,50.0,39.9,68,30.17,10.0,South,6.9,-,N/A,,Overcast,170,2013-02-11 08:54:00
4:54 AM,52.0,42.1,69,30.15,10.0,South,11.5,16.1,N/A,,Overcast,170,2013-02-11 09:54:00
5:54 AM,54.0,44.1,69,30.13,10.0,South,10.4,-,0.00,,Overcast,190,2013-02-11 10:54:00
6:54 AM,53.1,46.9,80,30.12,5.0,South,10.4,-,0.01,Rain,Light Rain,190,2013-02-11 11:54:00
7:47 AM,53.6,48.2,82,30.11,5.0,South,11.5,-,0.02,Rain,Light Rain,190,2013-02-11 12:47:00
7:54 AM,55.0,48.9,80,30.11,5.0,South,12.7,-,0.02,Rain,Light Rain,190,2013-02-11 12:54:00
7:57 AM,55.4,48.2,77,30.10,5.0,South,12.7,-,0.00,Rain,Light Rain,190,2013-02-11 12:57:00
8:11 AM,55.4,50.0,82,30.10,9.0,South,12.7,20.7,0.00,Rain,Light Rain,190,2013-02-11 13:11:00
8:43 AM,55.4,50.0,82,30.09,10.0,South,16.1,-,0.00,Rain,Light Rain,180,2013-02-11 13:43:00
8:54 AM,55.9,50.0,80,30.08,8.0,South,12.7,20.7,0.00,Rain,Light Rain,180,2013-02-11 13:54:00
9:42 AM,57.2,51.8,82,30.06,2.5,SSW,15.0,23.0,0.01,Rain,Light Rain,200,2013-02-11 14:42:00
9:54 AM,57.0,51.1,81,30.04,3.0,SSW,16.1,-,0.01,Rain,Light Rain,200,2013-02-11 14:54:00
10:02 AM,57.2,51.8,82,30.04,1.8,SSW,17.3,21.9,0.00,Rain,Light Rain,200,2013-02-11 15:02:00
10:07 AM,57.2,51.8,82,30.04,2.0,SSW,15.0,21.9,0.00,Rain,Light Rain,200,2013-02-11 15:07:00
10:27 AM,57.2,51.8,82,30.04,3.0,SSW,17.3,-,0.00,,Haze,200,2013-02-11 15:27:00
10:46 AM,57.2,53.6,88,30.03,2.0,SSW,13.8,-,0.00,Rain,Light Rain,210,2013-02-11 15:46:00
10:54 AM,57.9,53.1,84,30.03,3.0,SW,13.8,21.9,0.00,Rain,Light Rain,220,2013-02-11 15:54:00
11:21 AM,60.8,53.6,77,30.00,10.0,SSW,17.3,-,0.00,,Overcast,210,2013-02-11 16:21:00
11:54 AM,60.1,54.0,80,29.99,10.0,SW,17.3,25.3,0.00,,Overcast,220,2013-02-11 16:54:00
12:54 PM,61.0,55.0,81,29.94,10.0,SW,13.8,-,0.00,,Overcast,220,2013-02-11 17:54:00
1:54 PM,63.0,55.9,78,29.92,10.0,SW,12.7,23.0,N/A,,Overcast,220,2013-02-11 18:54:00
2:54 PM,63.0,55.9,78,29.88,10.0,SW,12.7,-,N/A,,Overcast,230,2013-02-11 19:54:00
3:54 PM,63.0,57.0,81,29.90,3.0,SW,15.0,-,0.00,,Haze,230,2013-02-11 20:54:00
4:02 PM,62.6,55.4,77,29.89,4.0,SW,15.0,-,N/A,,Haze,230,2013-02-11 21:02:00
4:49 PM,62.6,55.4,77,29.86,10.0,SW,15.0,-,N/A,,Overcast,220,2013-02-11 21:49:00
4:54 PM,63.0,55.9,78,29.85,10.0,SW,16.1,-,N/A,,Overcast,220,2013-02-11 21:54:00
5:54 PM,64.0,55.9,75,29.85,10.0,SW,17.3,25.3,0.00,,Overcast,230,2013-02-11 22:54:00
6:54 PM,64.0,55.9,75,29.85,10.0,SW,15.0,-,N/A,,Mostly Cloudy,230,2013-02-11 23:54:00
7:54 PM,63.0,55.9,78,29.83,10.0,SW,15.0,-,N/A,,Scattered Clouds,230,2013-02-12 00:54:00
8:54 PM,63.0,55.0,75,29.84,10.0,SW,15.0,25.3,N/A,,Clear,230,2013-02-12 01:54:00
9:54 PM,63.0,54.0,72,29.83,10.0,WSW,16.1,25.3,N/A,,Clear,240,2013-02-12 02:54:00
10:54 PM,62.6,51.8,68,29.83,10.0,WSW,15.0,-,N/A,,Clear,250,2013-02-12 03:54:00
11:54 PM,61.0,48.9,64,29.83,10.0,WSW,12.7,-,N/A,,Clear,250,2013-02-12 04:54:00